sensor_id;sensor_type;location;lat;lon;timestamp;P1;durP1;ratioP1;P2;durP2;ratioP2
74551;SDS011;63025;55.472;38.432;2023-12-04T00:01:22;22.40;;;9.63;;
74551;SDS011;63025;55.472;38.432;2023-12-04T00:03:48;16.85;;;8.48;;
74551;SDS011;63025;55.472;38.432;2023-12-04T00:06:14;18.17;;;8.45;;
74551;SDS011;63025;55.472;38.432;2023-12-04T00:08:40;18.35;;;8.15;;
74551;SDS011;63025;55.472;38.432;2023-12-04T00:11:06;19.27;;;8.27;;
74551;SDS011;63025;55.472;38.432;2023-12-04T00:13:32;17.55;;;8.00;;
74551;SDS011;63025;55.472;38.432;2023-12-04T00:15:59;14.57;;;7.28;;
74551;SDS011;63025;55.472;38.432;2023-12-04T00:18:25;18.40;;;7.65;;
74551;SDS011;63025;55.472;38.432;2023-12-04T00:20:50;16.70;;;7.82;;
74551;SDS011;63025;55.472;38.432;2023-12-04T00:23:17;16.45;;;7.30;;
74551;SDS011;63025;55.472;38.432;2023-12-04T00:25:43;15.40;;;7.95;;
74551;SDS011;63025;55.472;38.432;2023-12-04T00:28:09;18.23;;;8.50;;
74551;SDS011;63025;55.472;38.432;2023-12-04T00:30:34;18.67;;;7.53;;
74551;SDS011;63025;55.472;38.432;2023-12-04T00:33:00;15.65;;;8.32;;
74551;SDS011;63025;55.472;38.432;2023-12-04T00:35:26;18.27;;;7.95;;
74551;SDS011;63025;55.472;38.432;2023-12-04T00:37:52;16.80;;;7.85;;
74551;SDS011;63025;55.472;38.432;2023-12-04T00:40:18;19.73;;;8.65;;
74551;SDS011;63025;55.472;38.432;2023-12-04T00:42:43;24.63;;;10.00;;
74551;SDS011;63025;55.472;38.432;2023-12-04T00:45:09;21.98;;;9.82;;
74551;SDS011;63025;55.472;38.432;2023-12-04T00:47:35;21.98;;;10.13;;
74551;SDS011;63025;55.472;38.432;2023-12-04T00:50:01;26.92;;;11.55;;
74551;SDS011;63025;55.472;38.432;2023-12-04T00:52:28;20.35;;;11.40;;
74551;SDS011;63025;55.472;38.432;2023-12-04T00:54:54;24.80;;;11.95;;
74551;SDS011;63025;55.472;38.432;2023-12-04T00:57:20;25.10;;;11.40;;
74551;SDS011;63025;55.472;38.432;2023-12-04T00:59:46;28.42;;;12.45;;
74551;SDS011;63025;55.472;38.432;2023-12-04T01:02:12;21.67;;;11.13;;
74551;SDS011;63025;55.472;38.432;2023-12-04T01:04:41;25.10;;;12.90;;
74551;SDS011;63025;55.472;38.432;2023-12-04T01:07:07;26.10;;;11.60;;
74551;SDS011;63025;55.472;38.432;2023-12-04T01:09:36;22.05;;;10.57;;
74551;SDS011;63025;55.472;38.432;2023-12-04T01:12:02;23.13;;;11.02;;
74551;SDS011;63025;55.472;38.432;2023-12-04T01:14:28;21.10;;;10.68;;
74551;SDS011;63025;55.472;38.432;2023-12-04T01:16:54;23.50;;;10.75;;
74551;SDS011;63025;55.472;38.432;2023-12-04T01:19:20;19.65;;;9.38;;
74551;SDS011;63025;55.472;38.432;2023-12-04T01:21:45;20.48;;;10.00;;
74551;SDS011;63025;55.472;38.432;2023-12-04T01:24:11;19.58;;;9.98;;
74551;SDS011;63025;55.472;38.432;2023-12-04T01:26:38;21.38;;;9.38;;
74551;SDS011;63025;55.472;38.432;2023-12-04T01:29:04;20.70;;;8.98;;
74551;SDS011;63025;55.472;38.432;2023-12-04T01:31:29;23.65;;;9.10;;
74551;SDS011;63025;55.472;38.432;2023-12-04T01:33:55;17.58;;;8.30;;
74551;SDS011;63025;55.472;38.432;2023-12-04T01:36:21;21.92;;;8.50;;
74551;SDS011;63025;55.472;38.432;2023-12-04T01:38:47;18.73;;;7.95;;
74551;SDS011;63025;55.472;38.432;2023-12-04T01:41:13;17.90;;;7.50;;
74551;SDS011;63025;55.472;38.432;2023-12-04T01:43:38;16.23;;;6.93;;
74551;SDS011;63025;55.472;38.432;2023-12-04T01:46:04;16.90;;;7.75;;
74551;SDS011;63025;55.472;38.432;2023-12-04T01:48:31;16.33;;;7.20;;
74551;SDS011;63025;55.472;38.432;2023-12-04T01:50:58;20.35;;;7.82;;
74551;SDS011;63025;55.472;38.432;2023-12-04T01:53:28;17.73;;;7.32;;
74551;SDS011;63025;55.472;38.432;2023-12-04T01:55:54;16.88;;;7.45;;
74551;SDS011;63025;55.472;38.432;2023-12-04T01:58:20;15.88;;;6.78;;
74551;SDS011;63025;55.472;38.432;2023-12-04T02:00:46;13.98;;;7.43;;
74551;SDS011;63025;55.472;38.432;2023-12-04T02:03:12;15.20;;;7.18;;
74551;SDS011;63025;55.472;38.432;2023-12-04T02:05:39;17.45;;;7.18;;
74551;SDS011;63025;55.472;38.432;2023-12-04T02:08:05;17.10;;;6.90;;
74551;SDS011;63025;55.472;38.432;2023-12-04T02:10:31;16.30;;;7.20;;
74551;SDS011;63025;55.472;38.432;2023-12-04T02:12:57;14.48;;;7.10;;
74551;SDS011;63025;55.472;38.432;2023-12-04T02:15:23;15.57;;;6.72;;
74551;SDS011;63025;55.472;38.432;2023-12-04T02:17:49;15.35;;;7.05;;
74551;SDS011;63025;55.472;38.432;2023-12-04T02:20:15;17.42;;;7.85;;
74551;SDS011;63025;55.472;38.432;2023-12-04T02:22:42;16.33;;;7.20;;
74551;SDS011;63025;55.472;38.432;2023-12-04T02:25:08;22.30;;;7.45;;
74551;SDS011;63025;55.472;38.432;2023-12-04T02:27:47;18.05;;;7.65;;
74551;SDS011;63025;55.472;38.432;2023-12-04T02:30:17;16.23;;;7.07;;
74551;SDS011;63025;55.472;38.432;2023-12-04T02:32:45;19.35;;;7.70;;
74551;SDS011;63025;55.472;38.432;2023-12-04T02:35:13;19.92;;;7.20;;
74551;SDS011;63025;55.472;38.432;2023-12-04T02:37:40;15.38;;;6.93;;
74551;SDS011;63025;55.472;38.432;2023-12-04T02:40:07;17.42;;;7.68;;
74551;SDS011;63025;55.472;38.432;2023-12-04T02:42:33;18.88;;;8.10;;
74551;SDS011;63025;55.472;38.432;2023-12-04T02:44:59;18.67;;;7.43;;
74551;SDS011;63025;55.472;38.432;2023-12-04T02:47:25;17.02;;;7.57;;
74551;SDS011;63025;55.472;38.432;2023-12-04T02:49:51;16.35;;;7.30;;
74551;SDS011;63025;55.472;38.432;2023-12-04T02:52:16;16.33;;;7.03;;
74551;SDS011;63025;55.472;38.432;2023-12-04T02:54:42;16.17;;;7.07;;
74551;SDS011;63025;55.472;38.432;2023-12-04T02:57:08;17.42;;;7.38;;
74551;SDS011;63025;55.472;38.432;2023-12-04T02:59:34;15.25;;;6.88;;
74551;SDS011;63025;55.472;38.432;2023-12-04T03:02:00;16.13;;;7.68;;
74551;SDS011;63025;55.472;38.432;2023-12-04T03:04:28;17.75;;;7.80;;
74551;SDS011;63025;55.472;38.432;2023-12-04T03:06:57;17.95;;;7.53;;
74551;SDS011;63025;55.472;38.432;2023-12-04T03:09:23;16.83;;;6.93;;
74551;SDS011;63025;55.472;38.432;2023-12-04T03:11:49;18.08;;;7.60;;
74551;SDS011;63025;55.472;38.432;2023-12-04T03:14:14;17.60;;;7.03;;
74551;SDS011;63025;55.472;38.432;2023-12-04T03:16:41;18.73;;;7.35;;
74551;SDS011;63025;55.472;38.432;2023-12-04T03:19:06;20.80;;;8.32;;
74551;SDS011;63025;55.472;38.432;2023-12-04T03:21:32;16.00;;;7.20;;
74551;SDS011;63025;55.472;38.432;2023-12-04T03:23:58;15.95;;;6.63;;
74551;SDS011;63025;55.472;38.432;2023-12-04T03:26:24;14.48;;;6.68;;
74551;SDS011;63025;55.472;38.432;2023-12-04T03:28:49;16.48;;;7.22;;
74551;SDS011;63025;55.472;38.432;2023-12-04T03:31:15;17.15;;;7.43;;
74551;SDS011;63025;55.472;38.432;2023-12-04T03:33:41;14.60;;;6.22;;
74551;SDS011;63025;55.472;38.432;2023-12-04T03:36:07;15.13;;;6.30;;
74551;SDS011;63025;55.472;38.432;2023-12-04T03:38:33;14.02;;;5.95;;
74551;SDS011;63025;55.472;38.432;2023-12-04T03:40:59;15.15;;;6.47;;
74551;SDS011;63025;55.472;38.432;2023-12-04T03:43:25;15.05;;;7.30;;
74551;SDS011;63025;55.472;38.432;2023-12-04T03:45:51;12.30;;;6.15;;
74551;SDS011;63025;55.472;38.432;2023-12-04T03:48:16;13.93;;;6.40;;
74551;SDS011;63025;55.472;38.432;2023-12-04T03:50:42;14.07;;;6.10;;
74551;SDS011;63025;55.472;38.432;2023-12-04T03:53:08;13.40;;;6.03;;
74551;SDS011;63025;55.472;38.432;2023-12-04T03:55:34;14.73;;;6.10;;
74551;SDS011;63025;55.472;38.432;2023-12-04T03:57:59;17.17;;;5.82;;
74551;SDS011;63025;55.472;38.432;2023-12-04T04:00:25;17.80;;;6.15;;
74551;SDS011;63025;55.472;38.432;2023-12-04T04:02:51;17.77;;;6.05;;
74551;SDS011;63025;55.472;38.432;2023-12-04T04:05:17;16.75;;;6.32;;
74551;SDS011;63025;55.472;38.432;2023-12-04T04:07:43;13.57;;;6.30;;
74551;SDS011;63025;55.472;38.432;2023-12-04T04:10:08;17.23;;;6.65;;
74551;SDS011;63025;55.472;38.432;2023-12-04T04:12:34;14.95;;;6.35;;
74551;SDS011;63025;55.472;38.432;2023-12-04T04:15:00;13.27;;;5.72;;
74551;SDS011;63025;55.472;38.432;2023-12-04T04:17:26;12.77;;;6.00;;
74551;SDS011;63025;55.472;38.432;2023-12-04T04:19:52;13.40;;;6.35;;
74551;SDS011;63025;55.472;38.432;2023-12-04T04:22:19;12.75;;;6.75;;
74551;SDS011;63025;55.472;38.432;2023-12-04T04:24:46;17.27;;;6.47;;
74551;SDS011;63025;55.472;38.432;2023-12-04T04:27:12;13.02;;;6.00;;
74551;SDS011;63025;55.472;38.432;2023-12-04T04:29:38;16.23;;;7.10;;
74551;SDS011;63025;55.472;38.432;2023-12-04T04:32:04;17.85;;;6.70;;
74551;SDS011;63025;55.472;38.432;2023-12-04T04:34:30;16.25;;;7.40;;
74551;SDS011;63025;55.472;38.432;2023-12-04T04:36:56;16.55;;;6.72;;
74551;SDS011;63025;55.472;38.432;2023-12-04T04:39:22;16.38;;;6.57;;
74551;SDS011;63025;55.472;38.432;2023-12-04T04:41:48;14.68;;;7.20;;
74551;SDS011;63025;55.472;38.432;2023-12-04T04:44:13;15.98;;;6.57;;
74551;SDS011;63025;55.472;38.432;2023-12-04T04:46:39;17.63;;;7.22;;
74551;SDS011;63025;55.472;38.432;2023-12-04T04:49:05;15.48;;;6.90;;
74551;SDS011;63025;55.472;38.432;2023-12-04T04:51:34;16.17;;;7.22;;
74551;SDS011;63025;55.472;38.432;2023-12-04T04:54:00;15.10;;;6.88;;
74551;SDS011;63025;55.472;38.432;2023-12-04T04:56:26;16.45;;;8.10;;
74551;SDS011;63025;55.472;38.432;2023-12-04T04:58:53;17.52;;;7.72;;
74551;SDS011;63025;55.472;38.432;2023-12-04T05:01:19;17.75;;;8.38;;
74551;SDS011;63025;55.472;38.432;2023-12-04T05:03:45;18.33;;;7.80;;
74551;SDS011;63025;55.472;38.432;2023-12-04T05:06:11;17.17;;;7.97;;
74551;SDS011;63025;55.472;38.432;2023-12-04T05:08:36;18.08;;;8.95;;
74551;SDS011;63025;55.472;38.432;2023-12-04T05:11:02;19.05;;;7.93;;
74551;SDS011;63025;55.472;38.432;2023-12-04T05:13:29;18.98;;;8.10;;
74551;SDS011;63025;55.472;38.432;2023-12-04T05:16:10;18.25;;;7.15;;
74551;SDS011;63025;55.472;38.432;2023-12-04T05:18:36;19.70;;;8.77;;
74551;SDS011;63025;55.472;38.432;2023-12-04T05:21:03;21.63;;;8.10;;
74551;SDS011;63025;55.472;38.432;2023-12-04T05:23:33;17.05;;;8.07;;
74551;SDS011;63025;55.472;38.432;2023-12-04T05:25:59;19.90;;;9.48;;
74551;SDS011;63025;55.472;38.432;2023-12-04T05:28:25;21.48;;;8.63;;
74551;SDS011;63025;55.472;38.432;2023-12-04T05:30:51;21.42;;;8.93;;
74551;SDS011;63025;55.472;38.432;2023-12-04T05:33:17;18.48;;;7.97;;
74551;SDS011;63025;55.472;38.432;2023-12-04T05:35:47;20.52;;;8.65;;
74551;SDS011;63025;55.472;38.432;2023-12-04T05:38:14;21.83;;;8.80;;
74551;SDS011;63025;55.472;38.432;2023-12-04T05:40:40;17.85;;;8.95;;
74551;SDS011;63025;55.472;38.432;2023-12-04T05:43:06;23.15;;;9.20;;
74551;SDS011;63025;55.472;38.432;2023-12-04T05:45:32;19.27;;;9.05;;
74551;SDS011;63025;55.472;38.432;2023-12-04T05:47:57;20.67;;;8.73;;
74551;SDS011;63025;55.472;38.432;2023-12-04T05:50:23;20.30;;;8.95;;
74551;SDS011;63025;55.472;38.432;2023-12-04T05:52:50;18.85;;;9.57;;
74551;SDS011;63025;55.472;38.432;2023-12-04T05:55:16;17.88;;;8.05;;
74551;SDS011;63025;55.472;38.432;2023-12-04T05:57:41;22.75;;;9.05;;
74551;SDS011;63025;55.472;38.432;2023-12-04T06:00:08;21.90;;;9.75;;
74551;SDS011;63025;55.472;38.432;2023-12-04T06:02:41;23.52;;;10.25;;
74551;SDS011;63025;55.472;38.432;2023-12-04T06:05:07;25.10;;;9.48;;
74551;SDS011;63025;55.472;38.432;2023-12-04T06:07:34;19.13;;;9.52;;
74551;SDS011;63025;55.472;38.432;2023-12-04T06:10:00;22.35;;;10.13;;
74551;SDS011;63025;55.472;38.432;2023-12-04T06:12:28;21.63;;;9.70;;
74551;SDS011;63025;55.472;38.432;2023-12-04T06:14:53;24.55;;;10.25;;
74551;SDS011;63025;55.472;38.432;2023-12-04T06:17:19;24.30;;;9.98;;
74551;SDS011;63025;55.472;38.432;2023-12-04T06:19:46;21.33;;;9.30;;
74551;SDS011;63025;55.472;38.432;2023-12-04T06:22:11;20.73;;;9.55;;
74551;SDS011;63025;55.472;38.432;2023-12-04T06:24:38;18.45;;;8.35;;
74551;SDS011;63025;55.472;38.432;2023-12-04T06:27:04;23.88;;;9.45;;
74551;SDS011;63025;55.472;38.432;2023-12-04T06:29:31;21.30;;;9.00;;
74551;SDS011;63025;55.472;38.432;2023-12-04T06:31:58;19.83;;;9.55;;
74551;SDS011;63025;55.472;38.432;2023-12-04T06:34:24;18.15;;;8.52;;
74551;SDS011;63025;55.472;38.432;2023-12-04T06:36:50;19.23;;;9.10;;
74551;SDS011;63025;55.472;38.432;2023-12-04T06:39:16;22.10;;;9.30;;
74551;SDS011;63025;55.472;38.432;2023-12-04T06:41:42;19.85;;;9.57;;
74551;SDS011;63025;55.472;38.432;2023-12-04T06:44:09;23.52;;;9.73;;
74551;SDS011;63025;55.472;38.432;2023-12-04T06:46:36;26.02;;;9.63;;
74551;SDS011;63025;55.472;38.432;2023-12-04T06:49:04;25.30;;;10.50;;
74551;SDS011;63025;55.472;38.432;2023-12-04T06:51:32;21.48;;;9.80;;
74551;SDS011;63025;55.472;38.432;2023-12-04T06:53:58;21.92;;;10.20;;
74551;SDS011;63025;55.472;38.432;2023-12-04T06:56:24;22.73;;;9.90;;
74551;SDS011;63025;55.472;38.432;2023-12-04T06:58:49;22.48;;;9.93;;
74551;SDS011;63025;55.472;38.432;2023-12-04T07:01:15;23.63;;;9.90;;
74551;SDS011;63025;55.472;38.432;2023-12-04T07:03:41;21.10;;;8.40;;
74551;SDS011;63025;55.472;38.432;2023-12-04T07:06:07;23.42;;;10.10;;
74551;SDS011;63025;55.472;38.432;2023-12-04T07:08:33;24.10;;;10.15;;
74551;SDS011;63025;55.472;38.432;2023-12-04T07:10:59;21.20;;;9.40;;
74551;SDS011;63025;55.472;38.432;2023-12-04T07:13:25;23.05;;;10.32;;
74551;SDS011;63025;55.472;38.432;2023-12-04T07:15:51;19.98;;;8.73;;
74551;SDS011;63025;55.472;38.432;2023-12-04T07:18:16;19.20;;;9.23;;
74551;SDS011;63025;55.472;38.432;2023-12-04T07:20:42;18.90;;;9.50;;
74551;SDS011;63025;55.472;38.432;2023-12-04T07:23:08;21.90;;;9.35;;
74551;SDS011;63025;55.472;38.432;2023-12-04T07:25:34;22.48;;;9.23;;
74551;SDS011;63025;55.472;38.432;2023-12-04T07:27:59;25.20;;;9.80;;
74551;SDS011;63025;55.472;38.432;2023-12-04T07:30:25;22.00;;;9.10;;
74551;SDS011;63025;55.472;38.432;2023-12-04T07:32:52;20.05;;;9.73;;
74551;SDS011;63025;55.472;38.432;2023-12-04T07:35:18;22.20;;;9.15;;
74551;SDS011;63025;55.472;38.432;2023-12-04T07:37:44;20.00;;;9.68;;
74551;SDS011;63025;55.472;38.432;2023-12-04T07:40:10;20.50;;;9.63;;
74551;SDS011;63025;55.472;38.432;2023-12-04T07:42:37;22.27;;;10.32;;
74551;SDS011;63025;55.472;38.432;2023-12-04T07:45:04;20.35;;;9.73;;
74551;SDS011;63025;55.472;38.432;2023-12-04T07:47:30;21.50;;;9.60;;
74551;SDS011;63025;55.472;38.432;2023-12-04T07:49:56;20.73;;;9.45;;
74551;SDS011;63025;55.472;38.432;2023-12-04T07:52:22;21.10;;;7.85;;
74551;SDS011;63025;55.472;38.432;2023-12-04T07:54:48;18.27;;;8.50;;
74551;SDS011;63025;55.472;38.432;2023-12-04T07:57:13;20.92;;;9.80;;
74551;SDS011;63025;55.472;38.432;2023-12-04T07:59:39;21.27;;;9.45;;
74551;SDS011;63025;55.472;38.432;2023-12-04T08:02:05;21.50;;;9.07;;
74551;SDS011;63025;55.472;38.432;2023-12-04T08:04:31;19.17;;;8.57;;
74551;SDS011;63025;55.472;38.432;2023-12-04T08:06:57;21.40;;;9.25;;
74551;SDS011;63025;55.472;38.432;2023-12-04T08:09:22;17.70;;;9.10;;
74551;SDS011;63025;55.472;38.432;2023-12-04T08:11:48;20.23;;;9.65;;
74551;SDS011;63025;55.472;38.432;2023-12-04T08:14:14;18.92;;;8.98;;
74551;SDS011;63025;55.472;38.432;2023-12-04T08:16:41;22.48;;;9.15;;
74551;SDS011;63025;55.472;38.432;2023-12-04T08:19:07;20.38;;;8.98;;
74551;SDS011;63025;55.472;38.432;2023-12-04T08:21:33;17.75;;;8.80;;
74551;SDS011;63025;55.472;38.432;2023-12-04T08:23:59;18.05;;;8.65;;
74551;SDS011;63025;55.472;38.432;2023-12-04T08:26:25;20.50;;;9.35;;
74551;SDS011;63025;55.472;38.432;2023-12-04T08:28:51;19.73;;;8.27;;
74551;SDS011;63025;55.472;38.432;2023-12-04T08:31:17;18.00;;;8.35;;
74551;SDS011;63025;55.472;38.432;2023-12-04T08:33:43;21.33;;;8.68;;
74551;SDS011;63025;55.472;38.432;2023-12-04T08:36:10;18.70;;;8.20;;
74551;SDS011;63025;55.472;38.432;2023-12-04T08:38:37;20.85;;;9.23;;
74551;SDS011;63025;55.472;38.432;2023-12-04T08:41:03;19.75;;;9.07;;
74551;SDS011;63025;55.472;38.432;2023-12-04T08:43:29;20.05;;;8.20;;
74551;SDS011;63025;55.472;38.432;2023-12-04T08:45:55;19.58;;;9.38;;
74551;SDS011;63025;55.472;38.432;2023-12-04T08:48:21;19.95;;;9.07;;
74551;SDS011;63025;55.472;38.432;2023-12-04T08:50:47;20.45;;;8.80;;
74551;SDS011;63025;55.472;38.432;2023-12-04T08:53:14;24.95;;;10.63;;
74551;SDS011;63025;55.472;38.432;2023-12-04T08:55:40;22.13;;;10.45;;
74551;SDS011;63025;55.472;38.432;2023-12-04T08:58:05;24.05;;;11.23;;
74551;SDS011;63025;55.472;38.432;2023-12-04T09:00:31;25.83;;;11.27;;
74551;SDS011;63025;55.472;38.432;2023-12-04T09:02:58;23.17;;;10.73;;
74551;SDS011;63025;55.472;38.432;2023-12-04T09:05:23;22.70;;;11.27;;
74551;SDS011;63025;55.472;38.432;2023-12-04T09:07:49;21.90;;;10.32;;
74551;SDS011;63025;55.472;38.432;2023-12-04T09:10:15;21.77;;;9.75;;
74551;SDS011;63025;55.472;38.432;2023-12-04T09:12:43;22.80;;;9.00;;
74551;SDS011;63025;55.472;38.432;2023-12-04T09:15:09;22.42;;;8.68;;
74551;SDS011;63025;55.472;38.432;2023-12-04T09:17:34;23.67;;;10.63;;
74551;SDS011;63025;55.472;38.432;2023-12-04T09:20:00;22.85;;;9.93;;
74551;SDS011;63025;55.472;38.432;2023-12-04T09:22:28;20.23;;;9.30;;
74551;SDS011;63025;55.472;38.432;2023-12-04T09:24:55;22.67;;;10.10;;
74551;SDS011;63025;55.472;38.432;2023-12-04T09:27:22;23.25;;;10.57;;
74551;SDS011;63025;55.472;38.432;2023-12-04T09:29:47;23.05;;;9.93;;
74551;SDS011;63025;55.472;38.432;2023-12-04T09:32:13;24.33;;;11.07;;
74551;SDS011;63025;55.472;38.432;2023-12-04T09:34:39;23.35;;;10.07;;
74551;SDS011;63025;55.472;38.432;2023-12-04T09:37:05;21.98;;;9.85;;
74551;SDS011;63025;55.472;38.432;2023-12-04T09:39:31;24.90;;;10.15;;
74551;SDS011;63025;55.472;38.432;2023-12-04T09:41:56;21.92;;;10.25;;
74551;SDS011;63025;55.472;38.432;2023-12-04T09:44:25;20.38;;;9.80;;
74551;SDS011;63025;55.472;38.432;2023-12-04T09:46:53;20.38;;;9.82;;
74551;SDS011;63025;55.472;38.432;2023-12-04T09:49:19;23.15;;;9.60;;
74551;SDS011;63025;55.472;38.432;2023-12-04T09:51:45;22.17;;;9.40;;
74551;SDS011;63025;55.472;38.432;2023-12-04T09:54:11;19.45;;;8.65;;
74551;SDS011;63025;55.472;38.432;2023-12-04T09:56:37;23.65;;;9.18;;
74551;SDS011;63025;55.472;38.432;2023-12-04T09:59:05;21.92;;;10.02;;
74551;SDS011;63025;55.472;38.432;2023-12-04T10:01:31;23.38;;;9.73;;
74551;SDS011;63025;55.472;38.432;2023-12-04T10:03:58;20.38;;;9.15;;
74551;SDS011;63025;55.472;38.432;2023-12-04T10:06:26;22.98;;;9.57;;
74551;SDS011;63025;55.472;38.432;2023-12-04T10:08:53;23.77;;;9.70;;
74551;SDS011;63025;55.472;38.432;2023-12-04T10:11:20;22.27;;;9.27;;
74551;SDS011;63025;55.472;38.432;2023-12-04T10:13:47;22.63;;;10.10;;
74551;SDS011;63025;55.472;38.432;2023-12-04T10:16:13;21.10;;;9.77;;
74551;SDS011;63025;55.472;38.432;2023-12-04T10:18:39;20.80;;;10.43;;
74551;SDS011;63025;55.472;38.432;2023-12-04T10:21:04;20.98;;;9.13;;
74551;SDS011;63025;55.472;38.432;2023-12-04T10:23:40;23.13;;;10.18;;
74551;SDS011;63025;55.472;38.432;2023-12-04T10:26:07;18.27;;;8.75;;
74551;SDS011;63025;55.472;38.432;2023-12-04T10:28:33;18.73;;;8.85;;
74551;SDS011;63025;55.472;38.432;2023-12-04T10:30:59;21.65;;;9.18;;
74551;SDS011;63025;55.472;38.432;2023-12-04T10:33:25;22.05;;;10.23;;
74551;SDS011;63025;55.472;38.432;2023-12-04T10:35:52;23.45;;;9.57;;
74551;SDS011;63025;55.472;38.432;2023-12-04T10:38:18;19.60;;;8.77;;
74551;SDS011;63025;55.472;38.432;2023-12-04T10:40:44;21.48;;;9.55;;
74551;SDS011;63025;55.472;38.432;2023-12-04T10:45:40;19.05;;;9.27;;
74551;SDS011;63025;55.472;38.432;2023-12-04T10:48:07;22.10;;;10.10;;
74551;SDS011;63025;55.472;38.432;2023-12-04T10:50:34;19.55;;;8.70;;
74551;SDS011;63025;55.472;38.432;2023-12-04T10:53:04;19.98;;;9.02;;
74551;SDS011;63025;55.472;38.432;2023-12-04T10:55:30;18.75;;;8.50;;
74551;SDS011;63025;55.472;38.432;2023-12-04T10:57:57;21.63;;;9.05;;
74551;SDS011;63025;55.472;38.432;2023-12-04T11:00:27;23.33;;;9.35;;
74551;SDS011;63025;55.472;38.432;2023-12-04T11:02:55;22.45;;;9.73;;
74551;SDS011;63025;55.472;38.432;2023-12-04T11:05:22;20.60;;;9.15;;
74551;SDS011;63025;55.472;38.432;2023-12-04T11:07:58;22.05;;;9.45;;
74551;SDS011;63025;55.472;38.432;2023-12-04T11:10:27;18.27;;;8.95;;
74551;SDS011;63025;55.472;38.432;2023-12-04T11:13:08;17.48;;;7.97;;
74551;SDS011;63025;55.472;38.432;2023-12-04T11:15:41;18.85;;;8.25;;
74551;SDS011;63025;55.472;38.432;2023-12-04T11:18:12;22.67;;;9.23;;
74551;SDS011;63025;55.472;38.432;2023-12-04T11:20:56;19.40;;;8.98;;
74551;SDS011;63025;55.472;38.432;2023-12-04T11:23:25;20.60;;;9.27;;
74551;SDS011;63025;55.472;38.432;2023-12-04T11:25:51;20.48;;;9.43;;
74551;SDS011;63025;55.472;38.432;2023-12-04T11:28:18;19.42;;;8.75;;
74551;SDS011;63025;55.472;38.432;2023-12-04T11:30:45;19.88;;;9.18;;
74551;SDS011;63025;55.472;38.432;2023-12-04T11:33:11;17.33;;;8.38;;
74551;SDS011;63025;55.472;38.432;2023-12-04T11:35:38;18.33;;;8.93;;
74551;SDS011;63025;55.472;38.432;2023-12-04T11:38:06;21.02;;;9.27;;
74551;SDS011;63025;55.472;38.432;2023-12-04T11:40:35;22.65;;;10.35;;
74551;SDS011;63025;55.472;38.432;2023-12-04T11:45:53;23.25;;;10.10;;
74551;SDS011;63025;55.472;38.432;2023-12-04T11:48:32;22.20;;;10.32;;
74551;SDS011;63025;55.472;38.432;2023-12-04T11:50:58;25.92;;;10.60;;
74551;SDS011;63025;55.472;38.432;2023-12-04T11:53:25;23.15;;;10.48;;
74551;SDS011;63025;55.472;38.432;2023-12-04T11:55:55;25.92;;;10.85;;
74551;SDS011;63025;55.472;38.432;2023-12-04T11:58:24;26.23;;;11.02;;
74551;SDS011;63025;55.472;38.432;2023-12-04T12:00:52;25.20;;;11.35;;
74551;SDS011;63025;55.472;38.432;2023-12-04T12:03:17;26.42;;;11.60;;
74551;SDS011;63025;55.472;38.432;2023-12-04T12:05:46;25.30;;;11.32;;
74551;SDS011;63025;55.472;38.432;2023-12-04T12:08:15;27.38;;;11.57;;
74551;SDS011;63025;55.472;38.432;2023-12-04T12:10:41;27.83;;;12.15;;
74551;SDS011;63025;55.472;38.432;2023-12-04T12:13:06;28.05;;;11.98;;
74551;SDS011;63025;55.472;38.432;2023-12-04T12:15:33;26.80;;;11.43;;
74551;SDS011;63025;55.472;38.432;2023-12-04T12:17:59;26.70;;;11.45;;
74551;SDS011;63025;55.472;38.432;2023-12-04T12:20:25;28.08;;;11.80;;
74551;SDS011;63025;55.472;38.432;2023-12-04T12:22:52;26.35;;;11.93;;
74551;SDS011;63025;55.472;38.432;2023-12-04T12:25:18;32.15;;;11.77;;
74551;SDS011;63025;55.472;38.432;2023-12-04T12:27:44;28.25;;;11.63;;
74551;SDS011;63025;55.472;38.432;2023-12-04T12:30:11;27.88;;;12.10;;
74551;SDS011;63025;55.472;38.432;2023-12-04T12:32:37;27.65;;;11.60;;
74551;SDS011;63025;55.472;38.432;2023-12-04T12:35:03;30.27;;;11.82;;
74551;SDS011;63025;55.472;38.432;2023-12-04T12:37:29;24.88;;;11.43;;
74551;SDS011;63025;55.472;38.432;2023-12-04T12:39:56;26.40;;;11.70;;
74551;SDS011;63025;55.472;38.432;2023-12-04T12:42:27;26.63;;;11.70;;
74551;SDS011;63025;55.472;38.432;2023-12-04T12:44:54;23.80;;;10.90;;
74551;SDS011;63025;55.472;38.432;2023-12-04T12:47:21;28.88;;;11.80;;
74551;SDS011;63025;55.472;38.432;2023-12-04T12:49:48;30.35;;;11.40;;
74551;SDS011;63025;55.472;38.432;2023-12-04T12:52:14;25.52;;;11.93;;
74551;SDS011;63025;55.472;38.432;2023-12-04T12:54:41;28.98;;;11.77;;
74551;SDS011;63025;55.472;38.432;2023-12-04T12:57:08;27.25;;;12.25;;
74551;SDS011;63025;55.472;38.432;2023-12-04T12:59:37;23.80;;;11.10;;
74551;SDS011;63025;55.472;38.432;2023-12-04T13:02:04;25.67;;;10.60;;
74551;SDS011;63025;55.472;38.432;2023-12-04T13:04:40;27.98;;;12.32;;
74551;SDS011;63025;55.472;38.432;2023-12-04T13:07:08;28.60;;;11.50;;
74551;SDS011;63025;55.472;38.432;2023-12-04T13:09:34;32.10;;;12.75;;
74551;SDS011;63025;55.472;38.432;2023-12-04T13:12:01;25.60;;;11.00;;
74551;SDS011;63025;55.472;38.432;2023-12-04T13:14:27;29.13;;;11.77;;
74551;SDS011;63025;55.472;38.432;2023-12-04T13:16:53;28.13;;;12.38;;
74551;SDS011;63025;55.472;38.432;2023-12-04T13:19:20;26.10;;;12.52;;
74551;SDS011;63025;55.472;38.432;2023-12-04T13:21:46;26.98;;;11.77;;
74551;SDS011;63025;55.472;38.432;2023-12-04T13:24:12;26.85;;;11.32;;
74551;SDS011;63025;55.472;38.432;2023-12-04T13:26:38;31.40;;;12.02;;
74551;SDS011;63025;55.472;38.432;2023-12-04T13:29:04;29.88;;;12.23;;
74551;SDS011;63025;55.472;38.432;2023-12-04T13:31:31;26.45;;;11.15;;
74551;SDS011;63025;55.472;38.432;2023-12-04T13:34:00;26.33;;;11.73;;
74551;SDS011;63025;55.472;38.432;2023-12-04T13:36:25;27.80;;;11.15;;
74551;SDS011;63025;55.472;38.432;2023-12-04T13:38:52;26.23;;;11.77;;
74551;SDS011;63025;55.472;38.432;2023-12-04T13:41:19;26.90;;;11.38;;
74551;SDS011;63025;55.472;38.432;2023-12-04T13:44:03;26.60;;;11.82;;
74551;SDS011;63025;55.472;38.432;2023-12-04T13:46:29;24.48;;;9.98;;
74551;SDS011;63025;55.472;38.432;2023-12-04T13:48:58;28.48;;;11.82;;
74551;SDS011;63025;55.472;38.432;2023-12-04T13:51:24;27.20;;;10.88;;
74551;SDS011;63025;55.472;38.432;2023-12-04T13:53:51;28.80;;;11.48;;
74551;SDS011;63025;55.472;38.432;2023-12-04T13:56:21;27.92;;;11.10;;
74551;SDS011;63025;55.472;38.432;2023-12-04T13:59:06;27.42;;;10.57;;
74551;SDS011;63025;55.472;38.432;2023-12-04T14:01:33;28.95;;;11.38;;
74551;SDS011;63025;55.472;38.432;2023-12-04T14:03:59;27.75;;;11.10;;
74551;SDS011;63025;55.472;38.432;2023-12-04T14:06:27;29.30;;;11.85;;
74551;SDS011;63025;55.472;38.432;2023-12-04T14:08:53;28.85;;;11.70;;
74551;SDS011;63025;55.472;38.432;2023-12-04T14:11:19;27.23;;;10.88;;
74551;SDS011;63025;55.472;38.432;2023-12-04T14:13:46;28.42;;;10.55;;
74551;SDS011;63025;55.472;38.432;2023-12-04T14:16:12;28.15;;;11.75;;
74551;SDS011;63025;55.472;38.432;2023-12-04T14:18:37;26.02;;;10.65;;
74551;SDS011;63025;55.472;38.432;2023-12-04T14:21:05;28.55;;;12.13;;